Time;durP1;ratioP1;P1;durP2;ratioP2;P2;SDS_P1;SDS_P2;PMS_P1;PMS_P2;Temp;Humidity;BMP_temperature;BMP_pressure;BME280_temperature;BME280_humidity;BME280_pressure;Samples;Min_cycle;Max_cycle;Signal;HPM_P1;HPM_P2
2021/08/27 03:45:34;;;;;;;4.90;1.83;;;;;;;;;;5801806;23;20076;-86
2021/08/27 03:47:59;;;;;;;3.30;1.80;;;;;;;;;;4877706;29;20082;-86
2021/08/27 03:50:26;;;;;;;4.13;1.97;;;;;;;;;;4869904;29;20111;-85
2021/08/27 03:52:52;;;;;;;4.75;1.80;;;;;;;;;;4870153;29;20028;-85
2021/08/27 03:55:19;;;;;;;19.13;2.37;;;;;;;;;;4869036;29;20088;-85
2021/08/27 03:57:45;;;;;;;5.50;2.05;;;;;;;;;;4853988;23;20119;-81
2021/08/27 04:00:11;;;;;;;4.63;2.10;;;;;;;;;;4869146;29;20077;-81
2021/08/27 04:02:36;;;;;;;6.43;2.10;;;;;;;;;;4869933;29;20032;-82
2021/08/27 04:05:13;;;;;;;218.70;7.03;;;;;;;;;;4870464;29;20119;-82
2021/08/27 04:07:42;;;;;;;45.60;2.67;;;;;;;;;;4867065;29;20379;-81
2021/08/27 04:10:08;;;;;;;19.00;2.15;;;;;;;;;;4867477;29;20041;-81
2021/08/27 04:12:33;;;;;;;41.17;3.10;;;;;;;;;;4867265;29;20030;-81
2021/08/27 04:14:59;;;;;;;6.47;2.33;;;;;;;;;;4852051;29;20119;-83
2021/08/27 04:17:24;;;;;;;14.10;2.37;;;;;;;;;;4867184;29;20135;-83
2021/08/27 04:19:49;;;;;;;4.50;2.10;;;;;;;;;;4863711;29;20037;-83
2021/08/27 04:22:15;;;;;;;5.20;2.30;;;;;;;;;;4848326;29;20028;-83
2021/08/27 04:24:40;;;;;;;6.97;1.97;;;;;;;;;;4848545;29;20021;-82
2021/08/27 04:27:05;;;;;;;6.70;2.27;;;;;;;;;;4848529;29;20120;-83
2021/08/27 04:29:31;;;;;;;5.13;2.30;;;;;;;;;;4857846;29;20032;-83
2021/08/27 04:31:57;;;;;;;5.10;1.90;;;;;;;;;;4866674;29;20515;-83
2021/08/27 04:34:22;;;;;;;6.50;1.80;;;;;;;;;;4866966;29;20079;-83
2021/08/27 04:36:47;;;;;;;3.90;1.90;;;;;;;;;;4863618;29;20032;-83
2021/08/27 04:39:13;;;;;;;3.93;1.90;;;;;;;;;;4848403;29;20470;-81
2021/08/27 04:41:38;;;;;;;5.60;2.10;;;;;;;;;;4866406;29;20221;-83
2021/08/27 04:44:04;;;;;;;4.03;2.17;;;;;;;;;;4866646;29;20021;-84
2021/08/27 04:46:29;;;;;;;4.37;2.10;;;;;;;;;;4851265;29;20047;-83
2021/08/27 04:48:55;;;;;;;4.50;2.03;;;;;;;;;;4866595;29;20490;-83
2021/08/27 04:51:20;;;;;;;4.73;2.30;;;;;;;;;;4855260;29;20059;-83
2021/08/27 04:53:45;;;;;;;5.13;2.33;;;;;;;;;;4866347;29;20024;-83
2021/08/27 04:56:11;;;;;;;4.23;2.40;;;;;;;;;;4868456;29;20482;-83
2021/08/27 04:58:36;;;;;;;5.47;2.40;;;;;;;;;;4847558;29;20033;-83
2021/08/27 05:01:01;;;;;;;5.07;2.33;;;;;;;;;;4847775;29;20455;-82
2021/08/27 05:03:27;;;;;;;5.53;2.40;;;;;;;;;;4850597;29;20024;-83
2021/08/27 05:05:52;;;;;;;6.30;2.57;;;;;;;;;;4866123;29;20119;-84
2021/08/27 05:08:17;;;;;;;7.37;2.70;;;;;;;;;;4865645;29;20033;-83
2021/08/27 05:10:43;;;;;;;6.80;3.07;;;;;;;;;;4866571;29;20111;-84
2021/08/27 05:13:08;;;;;;;5.27;2.57;;;;;;;;;;4875025;29;20107;-83
2021/08/27 05:15:34;;;;;;;4.47;2.23;;;;;;;;;;4884608;29;20032;-83
2021/08/27 05:17:59;;;;;;;5.27;2.40;;;;;;;;;;4869150;29;20112;-84
2021/08/27 05:20:25;;;;;;;4.80;2.63;;;;;;;;;;4884453;29;20115;-82
2021/08/27 05:22:50;;;;;;;6.03;2.40;;;;;;;;;;4869852;29;20079;-84
2021/08/27 05:25:15;;;;;;;4.43;2.17;;;;;;;;;;4878389;29;20120;-84
2021/08/27 05:27:41;;;;;;;3.73;1.90;;;;;;;;;;4865634;29;20028;-84
2021/08/27 05:30:07;;;;;;;4.23;2.10;;;;;;;;;;4865936;29;20025;-85
2021/08/27 05:32:32;;;;;;;4.78;1.95;;;;;;;;;;4865475;29;20088;-83
2021/08/27 05:34:58;;;;;;;2.97;1.73;;;;;;;;;;4850383;29;20036;-83
2021/08/27 05:37:23;;;;;;;4.37;1.97;;;;;;;;;;4865528;29;20120;-83
2021/08/27 05:39:50;;;;;;;2.93;1.50;;;;;;;;;;4862540;29;20029;-82
2021/08/27 05:42:15;;;;;;;;;;;;;;;;;;4878779;29;20032;-82
2021/08/27 05:44:42;;;;;;;3.13;1.47;;;;;;;;;;4862774;29;19911;-85
2021/08/27 05:47:38;;;;;;;;;;;;;;;;;;4863795;29;20037;-88
2021/08/27 05:50:05;;;;;;;3.25;1.30;;;;;;;;;;4881392;29;19915;-85
2021/08/27 05:52:31;;;;;;;3.92;1.80;;;;;;;;;;4850733;29;20050;-84
2021/08/27 05:54:59;;;;;;;4.23;1.53;;;;;;;;;;4850824;29;20485;-84
2021/08/27 05:57:24;;;;;;;4.22;1.80;;;;;;;;;;4881683;29;20036;-85
2021/08/27 06:00:04;;;;;;;3.87;1.53;;;;;;;;;;4881706;29;20071;-85
2021/08/27 06:02:30;;;;;;;3.08;1.48;;;;;;;;;;4875859;29;20057;-85
2021/08/27 06:04:56;;;;;;;3.77;1.60;;;;;;;;;;4878484;29;20200;-84
2021/08/27 06:07:21;;;;;;;4.00;1.50;;;;;;;;;;4862872;29;20112;-85
2021/08/27 06:09:46;;;;;;;3.57;1.80;;;;;;;;;;4862661;29;20029;-84
2021/08/27 06:12:41;;;;;;;3.83;1.60;;;;;;;;;;4862732;29;20028;-85
2021/08/27 06:15:25;;;;;;;5.68;1.70;;;;;;;;;;4877869;29;20033;-84
2021/08/27 06:17:56;;;;;;;4.05;1.60;;;;;;;;;;4861079;29;20029;-87
2021/08/27 06:20:34;;;;;;;4.32;1.67;;;;;;;;;;4862797;29;20112;-85
2021/08/27 06:23:00;;;;;;;4.15;1.65;;;;;;;;;;4859739;29;20522;-85
2021/08/27 06:25:26;;;;;;;4.23;1.30;;;;;;;;;;4861955;29;20088;-85
2021/08/27 06:27:51;;;;;;;9.13;1.53;;;;;;;;;;4846390;29;20036;-87
2021/08/27 06:30:16;;;;;;;3.40;1.20;;;;;;;;;;4861131;29;20043;-88
2021/08/27 06:35:47;;;;;;;5.05;1.50;;;;;;;;;;4855372;29;20099;-88
2021/08/27 06:38:32;;;;;;;4.97;1.33;;;;;;;;;;4846051;29;20131;-88
2021/08/27 06:41:01;;;;;;;2.50;1.40;;;;;;;;;;4876821;29;20406;-88
2021/08/27 06:43:48;;;;;;;3.33;1.27;;;;;;;;;;4861656;29;20070;-88
2021/08/27 06:46:21;;;;;;;3.73;1.40;;;;;;;;;;4876865;29;20044;-88
2021/08/27 06:48:47;;;;;;;3.70;1.10;;;;;;;;;;4861547;29;20021;-88
2021/08/27 06:51:12;;;;;;;1.93;1.20;;;;;;;;;;4845890;29;20249;-88
2021/08/27 06:53:38;;;;;;;3.83;1.10;;;;;;;;;;4861496;29;20628;-87
2021/08/27 06:56:05;;;;;;;5.43;1.48;;;;;;;;;;4861592;29;20466;-88
2021/08/27 06:58:32;;;;;;;1.92;1.10;;;;;;;;;;4845822;29;20037;-87
2021/08/27 07:00:58;;;;;;;3.35;1.25;;;;;;;;;;4876468;29;20059;-86
2021/08/27 07:03:25;;;;;;;3.17;1.20;;;;;;;;;;4861273;29;20108;-86
2021/08/27 07:05:52;;;;;;;3.92;1.17;;;;;;;;;;4876927;29;20847;-87
2021/08/27 07:08:17;;;;;;;3.78;1.27;;;;;;;;;;4861256;29;20029;-87
2021/08/27 07:10:50;;;;;;;3.00;1.00;;;;;;;;;;4861275;29;20040;-87
2021/08/27 07:13:16;;;;;;;3.33;1.48;;;;;;;;;;4861073;29;20040;-87
2021/08/27 07:19:04;;;;;;;4.00;0.90;;;;;;;;;;4878164;29;20064;-86
2021/08/27 07:24:39;;;;;;;3.22;1.20;;;;;;;;;;4876552;29;20546;-88
2021/08/27 07:27:26;;;;;;;3.80;1.30;;;;;;;;;;4876340;29;20450;-89
2021/08/27 07:29:53;;;;;;;2.60;1.00;;;;;;;;;;4876508;29;20044;-88
2021/08/27 07:32:21;;;;;;;3.28;1.10;;;;;;;;;;4860981;29;20446;-88
2021/08/27 07:34:51;;;;;;;3.13;1.00;;;;;;;;;;4860852;29;20029;-85
2021/08/27 07:37:19;;;;;;;2.65;1.30;;;;;;;;;;4876704;29;20029;-85
2021/08/27 07:39:49;;;;;;;5.15;1.20;;;;;;;;;;4876777;29;20040;-85
2021/08/27 07:42:36;;;;;;;1.98;0.80;;;;;;;;;;4878990;29;20116;-86
2021/08/27 07:45:14;;;;;;;3.85;1.20;;;;;;;;;;4864322;29;20045;-87
2021/08/27 07:48:12;;;;;;;3.10;1.40;;;;;;;;;;4864678;29;20029;-86
2021/08/27 07:51:04;;;;;;;4.88;1.48;;;;;;;;;;4880349;29;20502;-88
2021/08/27 07:53:30;;;;;;;3.42;1.02;;;;;;;;;;4879311;29;20041;-89
2021/08/27 08:06:40;;;;;;;2.58;0.77;;;;;;;;;;4827638;29;20046;-87
2021/08/27 08:09:48;;;;;;;3.05;0.85;;;;;;;;;;4880491;29;20025;-87
2021/08/27 08:12:34;;;;;;;3.22;0.70;;;;;;;;;;4872833;29;20029;-87
2021/08/27 08:15:00;;;;;;;3.63;0.80;;;;;;;;;;4861154;29;20515;-87
2021/08/27 08:17:30;;;;;;;1.42;0.60;;;;;;;;;;4864127;29;20033;-87
2021/08/27 08:20:27;;;;;;;4.28;0.68;;;;;;;;;;4848514;29;20084;-87
2021/08/27 08:23:32;;;;;;;2.17;0.82;;;;;;;;;;4863442;29;20120;-87
2021/08/27 08:26:07;;;;;;;2.30;0.90;;;;;;;;;;4880262;29;20119;-87
2021/08/27 08:28:42;;;;;;;5.25;0.80;;;;;;;;;;4863684;29;20024;-89
2021/08/27 08:31:20;;;;;;;4.13;0.88;;;;;;;;;;4848177;29;20035;-88
2021/08/27 08:34:20;;;;;;;3.38;0.55;;;;;;;;;;4848176;29;20556;-88
2021/08/27 08:37:10;;;;;;;2.85;0.70;;;;;;;;;;4879294;29;20070;-90
2021/08/27 08:39:37;;;;;;;2.50;0.50;;;;;;;;;;4879264;29;20029;-90
2021/08/27 08:42:04;;;;;;;2.50;0.47;;;;;;;;;;4878900;29;20029;-87
2021/08/27 08:44:33;;;;;;;1.63;0.60;;;;;;;;;;4848148;29;20033;-91
2021/08/27 08:47:23;;;;;;;2.53;0.70;;;;;;;;;;4848155;29;20521;-89
2021/08/27 08:49:50;;;;;;;1.27;0.43;;;;;;;;;;4878058;29;20021;-89
2021/08/27 08:52:21;;;;;;;1.75;0.60;;;;;;;;;;4851511;29;20032;-88
2021/08/27 08:54:52;;;;;;;1.85;0.50;;;;;;;;;;4866022;29;20028;-90
2021/08/27 08:57:28;;;;;;;1.25;0.55;;;;;;;;;;4882862;29;20525;-87
2021/08/27 08:59:56;;;;;;;1.90;0.30;;;;;;;;;;4883444;29;20032;-86
2021/08/27 09:03:05;;;;;;;3.88;0.50;;;;;;;;;;4867794;29;20052;-87
2021/08/27 09:06:09;;;;;;;1.85;0.43;;;;;;;;;;4880467;29;20095;-87
2021/08/27 09:08:43;;;;;;;1.10;0.40;;;;;;;;;;4882264;29;20032;-87
2021/08/27 09:11:20;;;;;;;0.60;0.50;;;;;;;;;;4882063;29;20119;-86
2021/08/27 09:13:47;;;;;;;1.60;0.40;;;;;;;;;;4882505;29;20033;-87
2021/08/27 09:16:12;;;;;;;1.13;0.50;;;;;;;;;;4851517;29;20514;-86
2021/08/27 09:18:39;;;;;;;1.90;0.47;;;;;;;;;;4850597;29;20028;-85
2021/08/27 09:21:29;;;;;;;4.80;0.65;;;;;;;;;;4866281;29;20028;-84
2021/08/27 09:24:14;;;;;;;0.98;0.47;;;;;;;;;;4899524;29;20064;-83
2021/08/27 09:26:40;;;;;;;3.60;0.45;;;;;;;;;;4867079;29;20084;-83
2021/08/27 09:29:06;;;;;;;3.08;0.60;;;;;;;;;;4866369;29;20031;-82
2021/08/27 09:31:32;;;;;;;2.40;0.50;;;;;;;;;;4865760;29;20032;-81
2021/08/27 09:33:57;;;;;;;1.88;0.60;;;;;;;;;;4866697;29;20020;-83
2021/08/27 09:36:23;;;;;;;1.57;0.60;;;;;;;;;;4866425;29;20511;-83
2021/08/27 09:39:19;;;;;;;1.70;0.57;;;;;;;;;;4865913;29;20032;-84
2021/08/27 09:41:57;;;;;;;2.65;0.80;;;;;;;;;;4867512;29;20622;-83
2021/08/27 09:44:23;;;;;;;1.80;0.85;;;;;;;;;;4866556;29;20029;-83
2021/08/27 09:46:48;;;;;;;1.60;0.67;;;;;;;;;;4867130;29;20035;-83
2021/08/27 09:49:36;;;;;;;1.73;0.70;;;;;;;;;;4851071;29;20283;-83
2021/08/27 09:52:08;;;;;;;4.47;0.85;;;;;;;;;;4883704;29;20028;-82
2021/08/27 09:54:35;;;;;;;3.97;0.80;;;;;;;;;;4852223;29;20027;-82
2021/08/27 09:57:05;;;;;;;1.50;0.70;;;;;;;;;;4851550;29;20189;-83
2021/08/27 09:59:35;;;;;;;3.20;0.90;;;;;;;;;;4851934;29;20569;-83
2021/08/27 10:02:01;;;;;;;4.22;0.93;;;;;;;;;;4867283;29;20033;-83
2021/08/27 10:04:26;;;;;;;2.78;0.80;;;;;;;;;;4850744;29;20096;-83
2021/08/27 10:06:52;;;;;;;1.60;0.80;;;;;;;;;;4866352;29;20489;-83
2021/08/27 10:09:17;;;;;;;1.77;0.60;;;;;;;;;;4848178;29;20039;-84
2021/08/27 10:11:43;;;;;;;1.13;0.50;;;;;;;;;;4847343;29;20356;-83
2021/08/27 10:14:08;;;;;;;2.27;0.60;;;;;;;;;;4848576;29;20035;-82
2021/08/27 10:16:33;;;;;;;0.90;0.47;;;;;;;;;;4865472;29;20043;-82
2021/08/27 10:19:02;;;;;;;4.80;0.80;;;;;;;;;;4849969;29;20028;-82
2021/08/27 10:21:28;;;;;;;5.88;0.50;;;;;;;;;;4864342;29;20553;-82
2021/08/27 10:23:53;;;;;;;3.33;0.70;;;;;;;;;;4847004;29;20061;-82
2021/08/27 10:26:23;;;;;;;2.43;0.70;;;;;;;;;;4864170;29;20028;-82
2021/08/27 10:28:48;;;;;;;3.10;0.80;;;;;;;;;;4849606;29;20485;-83
2021/08/27 10:31:14;;;;;;;1.57;0.80;;;;;;;;;;4864413;29;20028;-82
2021/08/27 10:33:42;;;;;;;1.43;0.70;;;;;;;;;;4864939;29;20112;-82
2021/08/27 10:36:08;;;;;;;1.00;0.70;;;;;;;;;;4879531;29;20064;-81
2021/08/27 10:38:43;;;;;;;3.10;0.90;;;;;;;;;;4874259;29;20123;-81
2021/08/27 10:41:09;;;;;;;1.67;0.73;;;;;;;;;;4869371;29;20039;-82
2021/08/27 10:43:57;;;;;;;3.72;1.00;;;;;;;;;;4894237;29;20020;-81
2021/08/27 10:46:23;;;;;;;3.72;0.90;;;;;;;;;;4875780;29;20123;-82
2021/08/27 10:48:49;;;;;;;2.27;0.90;;;;;;;;;;4861951;29;20044;-81
2021/08/27 10:51:41;;;;;;;;;;;;;;;;;;4844304;29;20504;-81
2021/08/27 10:54:07;;;;;;;2.65;1.17;;;;;;;;;;4877499;29;19918;-82
2021/08/27 10:56:49;;;;;;;1.90;1.10;;;;;;;;;;4865130;29;20140;-81
2021/08/27 10:59:15;;;;;;;2.33;1.10;;;;;;;;;;4880209;29;20111;-81
2021/08/27 11:01:45;;;;;;;3.05;1.00;;;;;;;;;;4864882;29;20071;-81
2021/08/27 11:04:10;;;;;;;4.18;1.40;;;;;;;;;;4865115;29;20037;-81
2021/08/27 11:06:48;;;;;;;2.43;0.77;;;;;;;;;;4897217;29;20033;-82
2021/08/27 11:09:17;;;;;;;2.30;0.90;;;;;;;;;;4881299;29;20032;-82
2021/08/27 11:11:43;;;;;;;2.65;0.98;;;;;;;;;;4865140;29;20119;-83
2021/08/27 11:14:15;;;;;;;3.43;1.03;;;;;;;;;;4864848;29;20107;-82
2021/08/27 11:16:41;;;;;;;3.00;1.08;;;;;;;;;;4867168;29;20088;-82
2021/08/27 11:19:36;;;;;;;4.70;1.10;;;;;;;;;;4884280;29;20103;-83
2021/08/27 11:22:11;;;;;;;3.65;1.08;;;;;;;;;;4872015;29;20040;-83
2021/08/27 11:24:55;;;;;;;3.85;1.10;;;;;;;;;;4884416;29;20035;-81
2021/08/27 11:27:20;;;;;;;4.60;1.60;;;;;;;;;;4886743;29;20032;-84
2021/08/27 11:29:49;;;;;;;7.57;2.50;;;;;;;;;;4868500;29;20515;-82
2021/08/27 11:32:19;;;;;;;7.85;3.38;;;;;;;;;;4869388;29;20081;-83
2021/08/27 11:34:48;;;;;;;6.53;2.58;;;;;;;;;;4883560;29;20056;-84
2021/08/27 11:37:14;;;;;;;4.05;1.38;;;;;;;;;;4867812;29;20032;-84
2021/08/27 11:39:39;;;;;;;8.82;3.28;;;;;;;;;;4864512;29;20029;-83
2021/08/27 11:42:05;;;;;;;4.30;1.10;;;;;;;;;;4849371;29;20039;-82
2021/08/27 11:44:30;;;;;;;6.47;2.00;;;;;;;;;;4854614;29;20115;-82
2021/08/27 11:47:02;;;;;;;5.07;1.77;;;;;;;;;;4852858;29;20169;-84
2021/08/27 11:49:28;;;;;;;3.13;1.10;;;;;;;;;;4869726;29;20024;-85
2021/08/27 11:52:09;;;;;;;2.25;0.90;;;;;;;;;;4867846;29;20035;-84
2021/08/27 11:54:34;;;;;;;2.72;0.98;;;;;;;;;;4867956;29;20037;-84
2021/08/27 11:56:59;;;;;;;18.37;7.47;;;;;;;;;;4867989;29;20469;-84
2021/08/27 11:59:26;;;;;;;4.23;1.67;;;;;;;;;;4867971;29;20051;-83
2021/08/27 12:01:52;;;;;;;6.90;1.60;;;;;;;;;;4867910;29;20020;-84
2021/08/27 12:04:30;;;;;;;5.05;1.30;;;;;;;;;;4868178;29;20031;-83
2021/08/27 12:07:05;;;;;;;6.20;1.80;;;;;;;;;;4869478;29;20040;-84
2021/08/27 12:09:31;;;;;;;4.63;1.70;;;;;;;;;;4867734;29;20553;-83
2021/08/27 12:11:57;;;;;;;4.60;1.70;;;;;;;;;;4867710;29;20028;-84
2021/08/27 12:14:43;;;;;;;4.07;1.57;;;;;;;;;;4867521;29;20029;-83
2021/08/27 12:17:08;;;;;;;2.85;1.10;;;;;;;;;;4869882;29;20075;-83
2021/08/27 12:19:37;;;;;;;9.03;3.10;;;;;;;;;;4867577;29;20481;-83
2021/08/27 12:22:03;;;;;;;3.47;1.17;;;;;;;;;;4867554;29;20035;-84
2021/08/27 12:24:33;;;;;;;3.07;1.30;;;;;;;;;;4849148;29;20025;-83
2021/08/27 12:26:59;;;;;;;6.70;1.70;;;;;;;;;;4849175;29;20025;-83
2021/08/27 12:29:24;;;;;;;5.10;2.00;;;;;;;;;;4848399;29;20465;-84
2021/08/27 12:31:51;;;;;;;5.73;1.60;;;;;;;;;;4848928;29;20036;-84
2021/08/27 12:34:20;;;;;;;5.22;1.80;;;;;;;;;;4849440;29;20017;-83
2021/08/27 12:36:45;;;;;;;4.38;1.40;;;;;;;;;;4857475;29;20033;-84
2021/08/27 12:39:11;;;;;;;2.83;1.20;;;;;;;;;;4867393;29;20033;-84
2021/08/27 12:41:37;;;;;;;3.80;1.23;;;;;;;;;;4866992;29;20165;-84
2021/08/27 12:44:09;;;;;;;3.97;1.40;;;;;;;;;;4864698;29;20399;-84
2021/08/27 12:46:34;;;;;;;12.45;5.88;;;;;;;;;;4848929;29;20495;-83
2021/08/27 12:49:13;;;;;;;4.30;1.83;;;;;;;;;;4848838;29;20025;-84
2021/08/27 12:51:40;;;;;;;3.40;1.45;;;;;;;;;;4882156;29;20610;-84
2021/08/27 12:54:05;;;;;;;2.83;1.02;;;;;;;;;;4866998;29;20033;-83
2021/08/27 12:56:30;;;;;;;3.77;1.30;;;;;;;;;;4867089;29;20043;-84
2021/08/27 12:58:56;;;;;;;3.67;1.20;;;;;;;;;;4863532;29;20446;-85
2021/08/27 13:01:25;;;;;;;2.07;1.10;;;;;;;;;;4866977;29;20482;-84
2021/08/27 13:03:58;;;;;;;2.90;1.20;;;;;;;;;;4867140;29;20025;-84
2021/08/27 13:06:37;;;;;;;2.42;1.30;;;;;;;;;;4867328;29;20115;-84
2021/08/27 13:09:08;;;;;;;6.90;1.63;;;;;;;;;;4866746;29;20111;-84
2021/08/27 13:12:00;;;;;;;4.22;1.50;;;;;;;;;;4881980;29;20508;-84
2021/08/27 13:14:52;;;;;;;4.35;1.42;;;;;;;;;;4879536;29;20111;-84
2021/08/27 13:17:18;;;;;;;2.95;1.30;;;;;;;;;;4866759;29;20028;-84
2021/08/27 13:19:51;;;;;;;3.65;1.70;;;;;;;;;;4866862;29;20060;-83
2021/08/27 13:22:20;;;;;;;4.18;1.50;;;;;;;;;;4866492;29;20056;-84
2021/08/27 13:25:08;;;;;;;2.72;1.20;;;;;;;;;;4882226;29;20039;-85
2021/08/27 13:27:34;;;;;;;4.43;1.42;;;;;;;;;;4867772;29;20509;-85
2021/08/27 13:30:00;;;;;;;;;;;;;;;;;;4867075;29;20512;-85
2021/08/27 13:32:26;;;;;;;2.65;1.20;;;;;;;;;;4881755;29;19911;-85
2021/08/27 13:34:52;;;;;;;3.45;1.40;;;;;;;;;;4866440;29;20077;-85
2021/08/27 13:37:18;;;;;;;1.73;0.80;;;;;;;;;;4865689;29;20434;-82
2021/08/27 13:39:43;;;;;;;3.20;1.20;;;;;;;;;;4865547;29;20047;-82
2021/08/27 13:42:09;;;;;;;2.83;1.13;;;;;;;;;;4865677;29;20052;-84
2021/08/27 13:44:36;;;;;;;4.80;1.47;;;;;;;;;;4865714;29;20025;-84
2021/08/27 13:47:02;;;;;;;2.90;1.17;;;;;;;;;;4850201;29;20285;-84
2021/08/27 13:49:27;;;;;;;3.63;1.40;;;;;;;;;;4865555;29;20024;-84
2021/08/27 13:51:52;;;;;;;5.37;1.50;;;;;;;;;;4865376;29;20119;-84
2021/08/27 13:54:18;;;;;;;1.80;1.10;;;;;;;;;;4850093;29;20152;-84
2021/08/27 13:56:43;;;;;;;5.53;1.03;;;;;;;;;;4865757;29;20124;-83
2021/08/27 13:59:08;;;;;;;2.73;1.10;;;;;;;;;;4865172;29;20040;-83
2021/08/27 14:01:34;;;;;;;4.20;1.10;;;;;;;;;;4865166;29;20545;-81
2021/08/27 14:03:59;;;;;;;2.07;1.03;;;;;;;;;;4865123;29;20119;-81
2021/08/27 14:06:25;;;;;;;3.10;1.40;;;;;;;;;;4865226;29;20028;-81
2021/08/27 14:08:50;;;;;;;2.80;1.00;;;;;;;;;;4864977;29;20032;-82
2021/08/27 14:11:15;;;;;;;3.90;1.10;;;;;;;;;;4864830;29;20414;-82
2021/08/27 14:13:41;;;;;;;1.50;0.87;;;;;;;;;;4849807;29;20025;-82
2021/08/27 14:16:07;;;;;;;1.20;0.70;;;;;;;;;;4851937;29;20036;-82
2021/08/27 14:18:33;;;;;;;1.70;0.77;;;;;;;;;;4880483;29;20123;-82
2021/08/27 14:20:58;;;;;;;1.55;0.70;;;;;;;;;;4865156;29;20025;-82
2021/08/27 14:23:23;;;;;;;3.83;0.80;;;;;;;;;;4849458;29;20136;-82
2021/08/27 14:25:49;;;;;;;4.50;0.90;;;;;;;;;;4873291;29;20125;-82
2021/08/27 14:28:14;;;;;;;1.40;0.87;;;;;;;;;;4846489;29;20111;-82
2021/08/27 14:30:40;;;;;;;3.87;0.90;;;;;;;;;;4846481;29;20039;-82
2021/08/27 14:33:05;;;;;;;1.53;0.53;;;;;;;;;;4846173;29;20033;-82
2021/08/27 14:35:32;;;;;;;3.87;1.80;;;;;;;;;;4846364;29;20119;-81
2021/08/27 14:37:57;;;;;;;;;;;;;;;;;;4846650;29;20037;-82
2021/08/27 14:40:22;;;;;;;4.17;1.40;;;;;;;;;;4880324;29;19922;-82
2021/08/27 14:42:48;;;;;;;2.50;1.40;;;;;;;;;;4864010;29;20447;-82
2021/08/27 14:45:13;;;;;;;3.17;1.10;;;;;;;;;;4842269;29;20112;-82
2021/08/27 14:47:38;;;;;;;2.90;1.20;;;;;;;;;;4860111;29;20028;-82
2021/08/27 14:50:04;;;;;;;3.80;1.57;;;;;;;;;;4869432;29;20032;-83
2021/08/27 14:52:30;;;;;;;4.28;1.20;;;;;;;;;;4855310;29;20084;-82
2021/08/27 14:54:55;;;;;;;3.63;1.23;;;;;;;;;;4863586;29;20033;-82
2021/08/27 14:57:21;;;;;;;3.33;1.23;;;;;;;;;;4860887;29;20483;-82
2021/08/27 14:59:46;;;;;;;1.63;1.20;;;;;;;;;;4845645;29;20028;-81
2021/08/27 15:02:11;;;;;;;3.73;1.30;;;;;;;;;;4860909;29;20137;-82
2021/08/27 15:04:37;;;;;;;2.40;1.20;;;;;;;;;;4846000;29;20112;-82
2021/08/27 15:07:04;;;;;;;2.50;1.37;;;;;;;;;;4843983;29;20032;-81
2021/08/27 15:09:29;;;;;;;2.67;1.10;;;;;;;;;;4864375;29;20060;-82
2021/08/27 15:11:55;;;;;;;2.07;1.13;;;;;;;;;;4863853;29;20572;-81
2021/08/27 15:14:21;;;;;;;2.87;1.33;;;;;;;;;;4855295;29;20017;-81
2021/08/27 15:16:46;;;;;;;4.28;1.83;;;;;;;;;;4830783;29;20029;-81
2021/08/27 15:19:11;;;;;;;7.23;2.57;;;;;;;;;;4845332;29;20168;-81
2021/08/27 15:21:37;;;;;;;4.80;1.80;;;;;;;;;;4856147;29;20123;-81
2021/08/27 15:24:03;;;;;;;5.00;1.73;;;;;;;;;;4863927;29;20021;-81
2021/08/27 15:26:29;;;;;;;2.30;0.90;;;;;;;;;;4848546;29;20832;-81
2021/08/27 15:28:54;;;;;;;1.73;0.90;;;;;;;;;;4849834;29;20048;-81
2021/08/27 15:31:19;;;;;;;2.57;0.80;;;;;;;;;;4863680;29;20119;-82
2021/08/27 15:33:45;;;;;;;1.80;0.60;;;;;;;;;;4863627;29;20172;-81
2021/08/27 15:36:10;;;;;;;1.23;0.47;;;;;;;;;;4864234;29;20555;-82
2021/08/27 15:38:35;;;;;;;1.40;0.57;;;;;;;;;;4860851;29;20037;-81
2021/08/27 15:41:02;;;;;;;3.23;0.53;;;;;;;;;;4847933;29;20120;-81
2021/08/27 15:43:27;;;;;;;0.80;0.40;;;;;;;;;;4861350;29;20025;-81
2021/08/27 15:45:52;;;;;;;0.90;0.50;;;;;;;;;;4862860;29;20107;-82
2021/08/27 15:48:18;;;;;;;2.20;0.40;;;;;;;;;;4863169;29;20035;-81
2021/08/27 15:50:43;;;;;;;1.27;0.40;;;;;;;;;;4863304;29;20115;-81
2021/08/27 15:53:08;;;;;;;0.30;0.30;;;;;;;;;;4861978;29;20537;-82
2021/08/27 15:55:34;;;;;;;4.77;0.60;;;;;;;;;;4844969;29;20057;-81
2021/08/27 15:57:59;;;;;;;1.40;0.60;;;;;;;;;;4844994;29;20029;-81
2021/08/27 16:00:25;;;;;;;0.90;0.60;;;;;;;;;;4863174;29;20096;-81
2021/08/27 16:02:50;;;;;;;1.13;0.60;;;;;;;;;;4863355;29;20678;-81
2021/08/27 16:05:16;;;;;;;1.20;0.50;;;;;;;;;;4851821;29;20450;-81
2021/08/27 16:07:41;;;;;;;3.23;0.53;;;;;;;;;;4865170;29;20032;-81
2021/08/27 16:10:07;;;;;;;1.97;1.13;;;;;;;;;;4870251;29;20486;-81
2021/08/27 16:12:34;;;;;;;4.25;0.93;;;;;;;;;;4862230;29;20036;-81
2021/08/27 16:15:00;;;;;;;;;;;;;;;;;;4848852;29;20022;-81
2021/08/27 16:17:27;;;;;;;1.13;0.60;;;;;;;;;;4879899;29;19964;-84
2021/08/27 16:19:52;;;;;;;2.20;0.90;;;;;;;;;;4848924;29;20080;-83
2021/08/27 16:22:18;;;;;;;0.80;0.63;;;;;;;;;;4848539;29;20482;-85
2021/08/27 16:24:52;;;;;;;1.77;0.73;;;;;;;;;;4848232;29;20433;-84
2021/08/27 16:27:17;;;;;;;0.88;0.60;;;;;;;;;;4833344;29;20158;-82
2021/08/27 16:29:43;;;;;;;2.27;0.70;;;;;;;;;;4863607;29;20150;-84
2021/08/27 16:32:11;;;;;;;2.17;0.87;;;;;;;;;;4848085;29;20115;-83
2021/08/27 16:34:36;;;;;;;4.75;0.90;;;;;;;;;;4852685;29;20028;-80
2021/08/27 16:37:02;;;;;;;1.40;0.67;;;;;;;;;;4866751;29;20033;-81
2021/08/27 16:39:27;;;;;;;2.00;0.80;;;;;;;;;;4866513;29;20031;-81
2021/08/27 16:41:52;;;;;;;1.87;0.90;;;;;;;;;;4866947;29;20123;-80
2021/08/27 16:44:18;;;;;;;2.27;0.90;;;;;;;;;;4866746;29;20027;-81
2021/08/27 16:46:43;;;;;;;2.57;0.83;;;;;;;;;;4881966;29;20089;-80
2021/08/27 16:49:09;;;;;;;2.43;0.97;;;;;;;;;;4866056;29;20554;-80
2021/08/27 16:51:34;;;;;;;4.33;1.00;;;;;;;;;;4865821;29;20028;-81
2021/08/27 16:54:00;;;;;;;8.10;0.97;;;;;;;;;;4866100;29;20434;-80
2021/08/27 16:56:25;;;;;;;4.57;1.10;;;;;;;;;;4866132;29;20038;-80
2021/08/27 16:58:50;;;;;;;4.53;1.40;;;;;;;;;;4866072;29;20398;-81
2021/08/27 17:01:16;;;;;;;3.83;1.00;;;;;;;;;;4865686;29;20032;-81
2021/08/27 17:03:45;;;;;;;3.63;1.50;;;;;;;;;;4865985;29;20533;-80
2021/08/27 17:06:10;;;;;;;6.28;2.53;;;;;;;;;;4866335;29;20036;-80
2021/08/27 17:08:36;;;;;;;2.87;1.40;;;;;;;;;;4865743;29;20106;-81
2021/08/27 17:11:01;;;;;;;2.83;1.20;;;;;;;;;;4865570;29;20465;-80
2021/08/27 17:13:27;;;;;;;4.27;1.40;;;;;;;;;;4864899;29;20031;-80
2021/08/27 17:15:52;;;;;;;4.63;1.13;;;;;;;;;;4858956;29;20529;-82
2021/08/27 17:18:17;;;;;;;1.80;0.90;;;;;;;;;;4865142;29;20450;-81
2021/08/27 17:20:43;;;;;;;3.50;0.90;;;;;;;;;;4865286;29;20036;-87
2021/08/27 17:23:11;;;;;;;1.57;1.00;;;;;;;;;;4861875;29;20410;-87
2021/08/27 17:25:37;;;;;;;3.83;1.10;;;;;;;;;;4832560;29;20540;-87
2021/08/27 17:28:02;;;;;;;3.93;1.17;;;;;;;;;;4846031;29;20072;-87
2021/08/27 17:30:28;;;;;;;2.73;0.90;;;;;;;;;;4862348;29;20025;-85
2021/08/27 17:32:53;;;;;;;2.73;0.80;;;;;;;;;;4848960;29;20119;-87
2021/08/27 17:35:19;;;;;;;1.83;0.90;;;;;;;;;;4880892;29;20111;-87
2021/08/27 17:37:44;;;;;;;2.90;1.10;;;;;;;;;;4865527;29;20036;-84
2021/08/27 17:40:09;;;;;;;1.63;1.00;;;;;;;;;;4865592;29;20119;-86
2021/08/27 17:42:35;;;;;;;2.17;0.90;;;;;;;;;;4865509;29;20028;-86
2021/08/27 17:45:00;;;;;;;2.47;1.07;;;;;;;;;;4865467;29;20024;-85
2021/08/27 17:47:31;;;;;;;2.53;0.90;;;;;;;;;;4865500;29;20031;-87
2021/08/27 17:49:57;;;;;;;2.15;1.00;;;;;;;;;;4865685;29;20028;-84
2021/08/27 17:52:23;;;;;;;3.87;1.00;;;;;;;;;;4849889;29;20028;-85
2021/08/27 17:54:49;;;;;;;3.25;1.20;;;;;;;;;;4864791;29;20032;-82
2021/08/27 17:57:15;;;;;;;1.93;0.80;;;;;;;;;;4865074;29;20035;-82
2021/08/27 17:59:40;;;;;;;3.33;0.90;;;;;;;;;;4863033;29;20771;-82
2021/08/27 18:02:05;;;;;;;1.60;0.90;;;;;;;;;;4872376;29;20156;-82
2021/08/27 18:04:31;;;;;;;3.07;1.03;;;;;;;;;;4857287;29;20081;-82
2021/08/27 18:06:56;;;;;;;2.00;1.07;;;;;;;;;;4849576;29;20029;-82
2021/08/27 18:09:21;;;;;;;1.93;0.90;;;;;;;;;;4849539;29;20111;-82
2021/08/27 18:11:47;;;;;;;2.10;1.10;;;;;;;;;;4864767;29;20115;-82
2021/08/27 18:14:12;;;;;;;2.40;1.10;;;;;;;;;;4862365;29;20032;-83
2021/08/27 18:16:37;;;;;;;2.97;0.97;;;;;;;;;;4849782;29;20123;-82
2021/08/27 18:19:03;;;;;;;3.10;1.17;;;;;;;;;;4864610;29;20560;-82
2021/08/27 18:21:28;;;;;;;3.73;1.10;;;;;;;;;;4864397;29;20111;-82
2021/08/27 18:23:53;;;;;;;4.47;1.30;;;;;;;;;;4864240;29;20067;-84
2021/08/27 18:26:19;;;;;;;3.80;1.10;;;;;;;;;;4872636;29;20517;-86
2021/08/27 18:28:44;;;;;;;4.03;1.20;;;;;;;;;;4863513;29;20080;-85
2021/08/27 18:31:13;;;;;;;2.17;0.83;;;;;;;;;;4863195;29;20364;-86
2021/08/27 18:33:40;;;;;;;3.92;1.30;;;;;;;;;;4880466;29;20045;-85
2021/08/27 18:36:07;;;;;;;3.00;1.37;;;;;;;;;;4864598;29;20028;-86
2021/08/27 18:38:32;;;;;;;2.85;1.30;;;;;;;;;;4863698;29;20028;-85
2021/08/27 18:40:57;;;;;;;2.87;1.20;;;;;;;;;;4855898;29;20490;-86
2021/08/27 18:43:23;;;;;;;2.77;1.50;;;;;;;;;;4848343;29;20094;-87
2021/08/27 18:45:48;;;;;;;3.20;1.40;;;;;;;;;;4861867;29;20044;-85
2021/08/27 18:48:14;;;;;;;4.30;1.40;;;;;;;;;;4871667;29;20028;-82
2021/08/27 18:50:39;;;;;;;3.60;1.80;;;;;;;;;;4871548;29;20052;-82
2021/08/27 18:53:04;;;;;;;4.57;1.80;;;;;;;;;;4848887;29;20119;-82
2021/08/27 18:55:30;;;;;;;2.87;1.53;;;;;;;;;;4864287;29;20481;-82
2021/08/27 18:57:56;;;;;;;2.73;1.60;;;;;;;;;;4856617;29;20140;-82
2021/08/27 19:00:21;;;;;;;4.57;1.90;;;;;;;;;;4864192;29;20553;-82